CMCO2: Tar Creek nr Commerce 2NE

                                SHEF ID:       CMCO2     Tar Creek near Commerce, OK
STATION TYPE:

STAGE STAGE(2) RIV-FLOW BAT-LOAD
ft ft cfs volt
Ccp-Rev Ccp-Rev Ccp-Rev Ccp-Rev
(America/Chicago)
03/07 00:00 10.85 9.81 318 12.81
03/07 01:00 10.78 9.86 308 12.81
03/07 02:00 10.94 9.86 332 12.81
03/07 03:00 11.25 9.97 382 12.73
03/07 04:00 11.55 10.03 433 12.73
03/07 05:00 11.83 10.08 482 12.73
03/07 06:00 12.09 10.23 530 12.73
03/07 07:00 12.34 10.37 578 12.65
03/07 08:00 12.55 10.48 619 12.65
03/07 09:00 12.61 10.50 631 12.81
03/07 10:00 12.54 10.51 617 13.13
03/07 11:00 12.44 10.47 598 13.53
03/07 12:00 12.32 10.40 574 13.53
03/07 13:00 12.16 10.33 544 13.44
03/07 14:00 11.94 10.18 502 13.29
03/07 15:00 11.70 10.07 459 13.29
03/07 16:00 11.42 9.89 410 13.21
03/07 17:00 11.15 9.61 365 13.21
03/07 18:00 10.87 9.37 321 13.13
03/07 19:00 10.64 9.18 288 13.05
03/07 20:00 10.44 8.99 260 12.97
03/07 21:00 10.28 8.81 238 12.89
03/07 22:00 10.12 8.69 217 12.89
03/07 23:00 9.99 8.58 200 12.81
Data processed at Sun 08Mar2026 05:28 GMT

NOTICE: If you are parsing this page

Please convert to using our Data API. Starting early 2026 we will be migrating to: https://water.usace.army.mil with modern pages rendered in JavaScript. When this migration completes you will no longer be able to scrape this page! CWMSDataAPI (CDA)

Timeseries IDs (TSIDs)

TSIDs used from left to right in the data table
COMT.Stage.Inst.1Hour.0.Ccp-Rev
COMT.Stage-Alt.Inst.1Hour.0.Ccp-Rev
COMT.Flow.Inst.1Hour.0.Ccp-Rev
COMT.Volt-Battery Load.Inst.1Hour.0.Ccp-Rev

                            

All information presented herein is the property of the government of the United States of America and may be revised or deleted at any time without prior notice. Dissemination of this information without the expressed written consent of the Public Affairs Office, Tulsa District U.S. Army Corps of Engineers is strictly prohibited. These data are gathered electronically and, as presented, have NOT undergone any form of quality control. These data are NOT guaranteed to be valid or correct.